createdAt,value
2022-10-16T00:01:05.911Z,15.20
2022-10-16T00:03:33.891Z,15.10
2022-10-16T00:06:02.987Z,15.10
2022-10-16T00:08:31.585Z,15.10
2022-10-16T00:11:05.066Z,15.10
2022-10-16T00:13:35.070Z,15.00
2022-10-16T00:16:04.080Z,15.00
2022-10-16T00:18:32.679Z,15.00
2022-10-16T00:21:04.739Z,15.00
2022-10-16T00:23:32.682Z,15.00
2022-10-16T00:26:02.400Z,15.00
2022-10-16T00:28:30.269Z,14.90
2022-10-16T00:30:59.820Z,14.90
2022-10-16T00:33:27.698Z,15.00
2022-10-16T00:35:55.467Z,14.90
2022-10-16T00:38:23.276Z,15.00
2022-10-16T00:40:51.156Z,14.90
2022-10-16T00:43:35.143Z,14.90
2022-10-16T00:46:06.362Z,14.90
2022-10-16T00:48:34.387Z,14.80
2022-10-16T00:51:02.241Z,14.80
2022-10-16T00:53:30.457Z,14.80
2022-10-16T00:55:58.355Z,14.80
2022-10-16T00:58:26.479Z,14.80
2022-10-16T01:00:54.315Z,14.70
2022-10-16T01:03:29.714Z,14.70
2022-10-16T01:06:18.757Z,14.70
2022-10-16T01:08:59.919Z,14.70
2022-10-16T01:11:34.784Z,14.70
2022-10-16T01:14:07.986Z,14.70
2022-10-16T01:16:41.934Z,14.70
2022-10-16T01:19:18.926Z,14.60
2022-10-16T01:21:50.042Z,14.60
2022-10-16T01:24:28.532Z,14.60
2022-10-16T01:27:15.564Z,14.60
2022-10-16T01:29:51.011Z,14.50
2022-10-16T01:32:23.743Z,14.50
2022-10-16T01:34:55.256Z,14.50
2022-10-16T01:37:33.788Z,14.40
2022-10-16T01:40:04.640Z,14.40
2022-10-16T01:42:39.108Z,14.40
2022-10-16T01:45:09.300Z,14.40
2022-10-16T01:47:38.266Z,14.40
2022-10-16T01:50:08.691Z,14.30
2022-10-16T01:52:40.833Z,14.30
2022-10-16T01:55:12.298Z,14.30
2022-10-16T01:57:46.528Z,14.20
2022-10-16T02:00:18.244Z,14.20
2022-10-16T02:02:50.928Z,14.20
2022-10-16T02:05:25.149Z,14.20
2022-10-16T02:07:53.308Z,14.20
2022-10-16T02:10:21.542Z,14.20
2022-10-16T02:12:57.237Z,14.20
2022-10-16T02:15:25.049Z,14.10
2022-10-16T02:17:52.845Z,14.20
2022-10-16T02:20:24.419Z,14.10
2022-10-16T02:22:53.972Z,14.10
2022-10-16T02:25:26.981Z,14.10
2022-10-16T02:28:01.324Z,14.10
2022-10-16T02:30:33.813Z,14.10
2022-10-16T02:33:03.842Z,14.10
2022-10-16T02:35:33.369Z,14.00
2022-10-16T02:38:01.535Z,14.10
2022-10-16T02:40:30.306Z,14.00
2022-10-16T02:42:59.470Z,14.10
2022-10-16T02:45:28.378Z,14.00
2022-10-16T02:47:56.143Z,14.00
2022-10-16T02:50:25.268Z,14.00
2022-10-16T02:52:53.101Z,13.90
2022-10-16T02:55:21.200Z,13.90
2022-10-16T02:57:48.989Z,13.90
2022-10-16T03:00:19.386Z,13.90
2022-10-16T03:02:47.554Z,13.80
2022-10-16T03:05:16.301Z,13.80
2022-10-16T03:07:44.241Z,13.80
2022-10-16T03:10:12.046Z,13.80
2022-10-16T03:12:40.033Z,13.80
2022-10-16T03:15:08.842Z,13.70
2022-10-16T03:17:38.151Z,13.70
2022-10-16T03:20:06.751Z,13.70
2022-10-16T03:22:34.613Z,13.60
2022-10-16T03:25:02.626Z,13.60
2022-10-16T03:27:30.500Z,13.60
2022-10-16T03:29:58.270Z,13.60
2022-10-16T03:32:26.625Z,13.60
2022-10-16T03:34:57.303Z,13.50
2022-10-16T03:37:25.723Z,13.50
2022-10-16T03:39:53.978Z,13.50
2022-10-16T03:42:21.912Z,13.50
2022-10-16T03:44:49.689Z,13.50
2022-10-16T03:47:21.623Z,13.50
2022-10-16T03:49:49.670Z,13.40
2022-10-16T03:54:51.756Z,13.40
2022-10-16T03:57:19.640Z,13.40
2022-10-16T03:59:47.498Z,13.30
2022-10-16T04:02:15.719Z,13.40
2022-10-16T04:04:43.546Z,13.40
2022-10-16T04:07:11.312Z,13.40
2022-10-16T04:09:40.470Z,13.40
2022-10-16T04:12:08.417Z,13.40
2022-10-16T04:14:36.378Z,13.30
2022-10-16T04:17:04.203Z,13.30
2022-10-16T04:19:32.040Z,13.40
2022-10-16T04:21:59.840Z,13.40
2022-10-16T04:24:27.806Z,13.40
2022-10-16T04:26:56.994Z,13.30
2022-10-16T04:29:24.866Z,13.30
2022-10-16T04:31:52.663Z,13.30
2022-10-16T04:34:20.547Z,13.30
2022-10-16T04:36:50.079Z,13.30
2022-10-16T04:39:18.189Z,13.30
2022-10-16T04:41:46.187Z,13.20
2022-10-16T04:44:15.457Z,13.20
2022-10-16T04:46:43.266Z,13.30
2022-10-16T04:49:11.094Z,13.30
2022-10-16T04:51:38.868Z,13.30
2022-10-16T04:54:06.683Z,13.20
2022-10-16T04:56:40.937Z,13.30
2022-10-16T04:59:08.825Z,13.20
2022-10-16T05:01:37.956Z,13.20
2022-10-16T05:04:05.805Z,13.20
2022-10-16T05:06:33.666Z,13.20
2022-10-16T05:09:01.520Z,13.20
2022-10-16T05:11:29.495Z,13.20
2022-10-16T05:13:57.505Z,13.20
2022-10-16T05:16:25.365Z,13.10
2022-10-16T05:18:56.293Z,13.10
2022-10-16T05:21:38.082Z,13.10
2022-10-16T05:24:06.094Z,13.10
2022-10-16T05:26:34.008Z,13.10
2022-10-16T05:29:01.969Z,13.10
2022-10-16T05:31:29.846Z,13.00
2022-10-16T05:34:02.106Z,13.10
2022-10-16T05:36:30.103Z,13.00
2022-10-16T05:38:57.968Z,13.00
2022-10-16T05:41:27.086Z,13.00
2022-10-16T05:43:55.548Z,12.90
2022-10-16T05:46:23.395Z,13.00
2022-10-16T05:48:54.086Z,12.90
2022-10-16T05:51:23.282Z,12.90
2022-10-16T05:53:51.196Z,12.90
2022-10-16T05:56:19.026Z,12.90
2022-10-16T05:58:46.953Z,12.90
2022-10-16T06:01:16.820Z,12.90
2022-10-16T06:03:45.055Z,12.90
2022-10-16T06:06:14.416Z,12.90
2022-10-16T06:08:44.515Z,12.90
2022-10-16T06:11:15.509Z,12.90
2022-10-16T06:13:43.890Z,12.90
2022-10-16T06:16:12.342Z,12.90
2022-10-16T06:18:41.023Z,12.90
2022-10-16T06:21:11.269Z,13.00
2022-10-16T06:23:39.635Z,13.00
2022-10-16T06:26:10.622Z,13.00
2022-10-16T06:28:38.911Z,13.10
2022-10-16T06:31:08.620Z,13.10
2022-10-16T06:33:36.805Z,13.10
2022-10-16T06:36:05.534Z,13.10
2022-10-16T06:38:34.230Z,13.10
2022-10-16T06:41:02.336Z,13.10
2022-10-16T06:43:33.374Z,13.10
2022-10-16T06:46:02.266Z,13.10
2022-10-16T06:48:30.950Z,13.10
2022-10-16T06:51:00.168Z,13.10
2022-10-16T06:53:31.361Z,13.00
2022-10-16T06:56:10.001Z,13.10
2022-10-16T06:58:39.816Z,13.10
2022-10-16T07:01:09.583Z,13.10
2022-10-16T07:03:38.989Z,13.10
2022-10-16T07:06:08.701Z,13.20
2022-10-16T07:08:38.047Z,13.20
2022-10-16T07:11:07.373Z,13.30
2022-10-16T07:13:35.485Z,13.30
2022-10-16T07:16:08.538Z,13.40
2022-10-16T07:18:37.330Z,13.40
2022-10-16T07:21:06.519Z,13.40
2022-10-16T07:23:34.742Z,13.50
2022-10-16T07:26:02.925Z,13.50
2022-10-16T07:28:32.295Z,13.60
2022-10-16T07:31:03.145Z,13.70
2022-10-16T07:33:32.662Z,13.80
2022-10-16T07:36:00.581Z,13.90
2022-10-16T07:38:28.768Z,14.00
2022-10-16T07:41:00.320Z,14.20
2022-10-16T07:43:28.865Z,14.50
2022-10-16T07:45:59.022Z,14.60
2022-10-16T07:48:30.688Z,14.60
2022-10-16T07:51:01.681Z,14.60
2022-10-16T07:53:29.887Z,14.70
2022-10-16T07:56:00.544Z,14.70
2022-10-16T07:58:28.793Z,14.80
2022-10-16T08:00:56.801Z,14.80
2022-10-16T08:03:25.145Z,14.80
2022-10-16T08:05:53.509Z,14.90
2022-10-16T08:08:22.666Z,14.90
2022-10-16T08:10:50.579Z,14.90
2022-10-16T08:13:18.441Z,14.90
2022-10-16T08:15:47.462Z,14.90
2022-10-16T08:18:16.533Z,14.80
2022-10-16T08:20:45.404Z,14.90
2022-10-16T08:23:14.217Z,14.90
2022-10-16T08:25:44.059Z,14.90
2022-10-16T08:28:12.939Z,14.90
2022-10-16T08:30:41.018Z,15.00
2022-10-16T08:33:09.006Z,15.00
2022-10-16T08:35:36.792Z,15.10
2022-10-16T08:38:05.348Z,15.20
2022-10-16T08:40:35.257Z,15.30
2022-10-16T08:43:39.275Z,15.50
2022-10-16T08:46:18.109Z,15.70
2022-10-16T08:48:48.163Z,15.80
2022-10-16T08:51:22.919Z,15.90
2022-10-16T08:53:54.792Z,16.10
2022-10-16T08:56:23.011Z,16.30
2022-10-16T08:58:56.476Z,16.50
2022-10-16T09:01:39.247Z,16.60
2022-10-16T09:04:34.264Z,16.80
2022-10-16T09:07:06.806Z,16.80
2022-10-16T09:09:56.413Z,16.90
2022-10-16T09:12:31.682Z,17.00
2022-10-16T09:15:13.810Z,17.20
2022-10-16T09:17:51.792Z,17.50
2022-10-16T09:20:28.836Z,17.50
2022-10-16T09:23:16.569Z,17.50
2022-10-16T09:25:48.516Z,17.50
2022-10-16T09:28:17.299Z,17.40
2022-10-16T09:30:47.001Z,17.50
2022-10-16T09:33:15.631Z,17.70
2022-10-16T09:35:45.609Z,17.60
2022-10-16T09:38:24.236Z,17.60
2022-10-16T09:40:58.927Z,17.70
2022-10-16T09:43:38.519Z,17.80
2022-10-16T09:46:09.268Z,17.90
2022-10-16T09:48:41.162Z,18.00
2022-10-16T09:51:20.843Z,18.00
2022-10-16T09:53:49.685Z,18.10
2022-10-16T09:56:25.062Z,18.10
2022-10-16T09:58:54.183Z,18.20
2022-10-16T10:01:27.070Z,18.20
2022-10-16T10:04:01.957Z,18.20
2022-10-16T10:06:33.108Z,18.10
2022-10-16T10:09:05.392Z,18.20
2022-10-16T10:11:48.818Z,18.30
2022-10-16T10:14:23.470Z,18.20
2022-10-16T10:16:53.534Z,18.40
2022-10-16T10:19:26.137Z,18.50
2022-10-16T10:21:57.116Z,18.50
2022-10-16T10:24:25.034Z,18.50
2022-10-16T10:26:59.005Z,18.50
2022-10-16T10:29:36.483Z,18.50
2022-10-16T10:32:17.145Z,18.70
2022-10-16T10:34:58.987Z,18.80
2022-10-16T10:37:53.095Z,19.00
2022-10-16T10:40:32.410Z,19.00
2022-10-16T10:43:07.037Z,18.90
2022-10-16T10:45:43.869Z,18.80
2022-10-16T10:48:26.361Z,18.90
2022-10-16T10:50:59.199Z,18.70
2022-10-16T10:53:38.021Z,18.70
2022-10-16T10:56:17.016Z,18.70
2022-10-16T10:58:59.739Z,18.70
2022-10-16T11:01:37.544Z,18.80
2022-10-16T11:04:35.784Z,18.80
2022-10-16T11:07:07.784Z,18.80
2022-10-16T11:09:40.176Z,18.80
2022-10-16T11:12:13.399Z,18.70
2022-10-16T11:14:47.096Z,18.70
2022-10-16T11:17:21.225Z,18.80
2022-10-16T11:19:53.754Z,18.90
2022-10-16T11:22:25.359Z,18.90
2022-10-16T11:27:37.784Z,18.90
2022-10-16T11:30:15.231Z,18.80
2022-10-16T11:32:56.037Z,18.90
2022-10-16T11:35:31.513Z,18.90
2022-10-16T11:38:02.060Z,19.00
2022-10-16T11:40:34.387Z,19.00
2022-10-16T11:43:12.302Z,19.00
2022-10-16T11:45:44.658Z,19.00
2022-10-16T11:48:22.138Z,19.00
2022-10-16T11:50:55.140Z,19.20
2022-10-16T11:53:32.650Z,19.20
2022-10-16T11:56:00.647Z,19.00
2022-10-16T11:58:34.347Z,19.00
2022-10-16T12:01:17.320Z,19.00
2022-10-16T12:03:52.605Z,18.90
2022-10-16T12:06:31.181Z,18.90
2022-10-16T12:09:01.553Z,18.80
2022-10-16T12:11:39.333Z,18.80
2022-10-16T12:14:23.518Z,18.80
2022-10-16T12:16:57.101Z,18.70
2022-10-16T12:19:26.499Z,18.70
2022-10-16T12:21:58.725Z,18.40
2022-10-16T12:24:35.539Z,18.40
2022-10-16T12:27:04.309Z,18.40
2022-10-16T12:29:37.294Z,18.50
2022-10-16T12:32:07.352Z,18.50
2022-10-16T12:34:41.190Z,18.50
2022-10-16T12:37:16.971Z,18.50
2022-10-16T12:39:44.889Z,18.50
2022-10-16T12:42:25.490Z,18.50
2022-10-16T12:44:54.050Z,18.60
2022-10-16T12:47:23.785Z,18.60
2022-10-16T12:49:53.798Z,18.60
2022-10-16T12:52:37.727Z,18.70
2022-10-16T12:55:14.347Z,18.70
2022-10-16T12:58:00.035Z,18.60
2022-10-16T13:00:38.065Z,18.70
2022-10-16T13:03:37.007Z,18.70
2022-10-16T13:06:19.364Z,18.80
2022-10-16T13:09:07.539Z,18.70
2022-10-16T13:11:50.226Z,18.50
2022-10-16T13:14:54.582Z,18.40
2022-10-16T13:17:30.182Z,18.20
2022-10-16T13:20:05.004Z,18.00
2022-10-16T13:22:41.282Z,18.00
2022-10-16T13:25:25.729Z,17.90
2022-10-16T13:27:57.630Z,17.90
2022-10-16T13:30:30.703Z,17.90
2022-10-16T13:33:02.557Z,17.80
2022-10-16T13:35:32.576Z,17.80
2022-10-16T13:38:16.947Z,17.80
2022-10-16T13:40:57.481Z,17.70
2022-10-16T13:43:29.144Z,17.70
2022-10-16T13:45:59.273Z,17.70
2022-10-16T13:48:27.193Z,17.60
2022-10-16T13:51:07.630Z,17.60
2022-10-16T13:53:36.980Z,17.60
2022-10-16T13:56:09.635Z,17.60
2022-10-16T13:58:37.512Z,17.60
2022-10-16T14:01:07.626Z,17.60
2022-10-16T14:03:37.463Z,17.60
2022-10-16T14:06:12.929Z,17.70
2022-10-16T14:08:45.157Z,17.70
2022-10-16T14:11:14.663Z,17.70
2022-10-16T14:13:47.152Z,17.70
2022-10-16T14:16:20.926Z,17.70
2022-10-16T14:18:57.163Z,17.80
2022-10-16T14:21:25.450Z,17.90
2022-10-16T14:23:53.250Z,17.90
2022-10-16T14:26:24.821Z,18.00
2022-10-16T14:29:06.646Z,18.10
2022-10-16T14:31:37.295Z,18.10
2022-10-16T14:34:06.043Z,18.10
2022-10-16T14:36:36.021Z,18.10
2022-10-16T14:39:07.445Z,18.20
2022-10-16T14:41:47.110Z,18.20
2022-10-16T14:44:15.604Z,18.20
2022-10-16T14:46:45.723Z,18.20
2022-10-16T14:49:20.714Z,18.20
2022-10-16T14:51:49.324Z,18.20
2022-10-16T14:54:18.998Z,18.20
2022-10-16T14:56:53.644Z,18.20
2022-10-16T14:59:27.090Z,18.20
2022-10-16T15:01:55.091Z,18.10
2022-10-16T15:04:22.889Z,18.10
2022-10-16T15:06:50.962Z,18.10
2022-10-16T15:09:18.762Z,18.00
2022-10-16T15:11:47.456Z,18.00
2022-10-16T15:14:16.600Z,18.00
2022-10-16T15:16:44.696Z,18.00
2022-10-16T15:19:12.481Z,17.90
2022-10-16T15:21:40.363Z,17.90
2022-10-16T15:24:16.693Z,17.80
2022-10-16T15:26:47.782Z,17.80
2022-10-16T15:29:17.220Z,17.70
2022-10-16T15:31:46.417Z,17.60
2022-10-16T15:34:14.346Z,17.60
2022-10-16T15:36:42.546Z,17.40
2022-10-16T15:39:15.149Z,17.40
2022-10-16T15:41:43.581Z,17.50
2022-10-16T15:44:11.413Z,17.40
2022-10-16T15:46:40.595Z,17.30
2022-10-16T15:49:08.495Z,17.30
2022-10-16T15:51:40.389Z,17.20
2022-10-16T15:54:08.294Z,17.20
2022-10-16T15:56:37.777Z,17.10
2022-10-16T15:59:06.340Z,17.10
2022-10-16T16:01:35.295Z,17.00
2022-10-16T16:04:15.476Z,17.00
2022-10-16T16:06:48.169Z,16.90
2022-10-16T16:09:16.720Z,16.80
2022-10-16T16:11:44.974Z,16.70
2022-10-16T16:14:14.981Z,16.60
2022-10-16T16:16:43.696Z,16.60
2022-10-16T16:19:12.851Z,16.50
2022-10-16T16:21:41.105Z,16.40
2022-10-16T16:24:09.719Z,16.30
2022-10-16T16:26:40.774Z,16.20
2022-10-16T16:29:09.230Z,16.20
2022-10-16T16:31:37.451Z,16.10
2022-10-16T16:34:05.543Z,16.00
2022-10-16T16:36:35.017Z,15.90
2022-10-16T16:39:03.345Z,15.80
2022-10-16T16:41:32.075Z,15.80
2022-10-16T16:44:04.472Z,15.70
2022-10-16T16:46:33.807Z,15.60
2022-10-16T16:49:02.189Z,15.60
2022-10-16T16:51:30.609Z,15.50
2022-10-16T16:54:00.339Z,15.40
2022-10-16T16:56:28.413Z,15.30
2022-10-16T16:58:58.431Z,15.30
2022-10-16T17:01:28.497Z,15.20
2022-10-16T17:03:58.233Z,15.10
2022-10-16T17:06:30.351Z,15.00
2022-10-16T17:09:00.424Z,14.90
2022-10-16T17:11:29.222Z,14.80
2022-10-16T17:13:59.399Z,14.90
2022-10-16T17:16:29.402Z,14.80
2022-10-16T17:18:57.395Z,14.80
2022-10-16T17:21:26.768Z,14.70
2022-10-16T17:23:54.848Z,14.70
2022-10-16T17:26:24.041Z,14.60
2022-10-16T17:28:54.050Z,14.60
2022-10-16T17:31:24.037Z,14.50
2022-10-16T17:33:52.551Z,14.50
2022-10-16T17:36:21.306Z,14.40
2022-10-16T17:38:49.613Z,14.40
2022-10-16T17:41:19.928Z,14.30
2022-10-16T17:43:51.055Z,14.30
2022-10-16T17:46:20.649Z,14.20
2022-10-16T17:48:50.650Z,14.10
2022-10-16T17:51:21.778Z,14.00
2022-10-16T17:53:50.309Z,13.90
2022-10-16T17:56:18.338Z,13.80
2022-10-16T17:58:51.447Z,13.80
2022-10-16T18:01:23.200Z,13.70
2022-10-16T18:03:52.117Z,13.70
2022-10-16T18:06:23.193Z,13.60
2022-10-16T18:08:51.673Z,13.60
2022-10-16T18:11:19.544Z,13.50
2022-10-16T18:13:47.413Z,13.50
2022-10-16T18:16:16.271Z,13.40
2022-10-16T18:18:46.033Z,13.30
2022-10-16T18:21:16.263Z,13.30
2022-10-16T18:23:49.208Z,13.20
2022-10-16T18:26:21.386Z,13.20
2022-10-16T18:28:50.854Z,13.10
2022-10-16T18:31:19.053Z,13.10
2022-10-16T18:33:50.478Z,13.10
2022-10-16T18:36:21.078Z,13.10
2022-10-16T18:38:49.655Z,13.00
2022-10-16T18:41:19.242Z,12.90
2022-10-16T18:43:47.252Z,13.00
2022-10-16T18:46:16.821Z,13.00
2022-10-16T18:48:46.435Z,12.90
2022-10-16T18:51:17.817Z,12.90
2022-10-16T18:53:48.312Z,12.80
2022-10-16T18:56:18.395Z,12.80
2022-10-16T18:58:48.286Z,12.80
2022-10-16T19:01:20.608Z,12.70
2022-10-16T19:03:49.437Z,12.70
2022-10-16T19:06:18.769Z,12.70
2022-10-16T19:08:46.709Z,12.60
2022-10-16T19:11:16.486Z,12.60
2022-10-16T19:13:45.787Z,12.30
2022-10-16T19:16:20.426Z,12.40
2022-10-16T19:18:48.950Z,12.40
2022-10-16T19:21:18.868Z,12.40
2022-10-16T19:23:47.427Z,12.40
2022-10-16T19:26:18.154Z,12.40
2022-10-16T19:28:46.448Z,12.50
2022-10-16T19:31:16.490Z,12.50
2022-10-16T19:33:44.510Z,12.50
2022-10-16T19:36:13.997Z,12.40
2022-10-16T19:38:43.930Z,12.40
2022-10-16T19:41:13.692Z,12.40
2022-10-16T19:43:42.418Z,12.30
2022-10-16T19:46:12.642Z,12.30
2022-10-16T19:48:40.978Z,12.30
2022-10-16T19:51:12.634Z,12.20
2022-10-16T19:53:40.483Z,12.20
2022-10-16T19:56:15.757Z,12.20
2022-10-16T19:58:44.209Z,12.20
2022-10-16T20:01:12.542Z,12.20
2022-10-16T20:03:40.518Z,12.10
2022-10-16T20:06:09.642Z,12.20
2022-10-16T20:08:39.575Z,12.20
2022-10-16T20:11:11.315Z,12.20
2022-10-16T20:13:41.660Z,12.20
2022-10-16T20:16:11.954Z,12.20
2022-10-16T20:18:40.191Z,12.20
2022-10-16T20:21:10.980Z,12.20
2022-10-16T20:23:39.134Z,12.10
2022-10-16T20:26:07.467Z,12.10
2022-10-16T20:28:35.360Z,12.10
2022-10-16T20:31:09.792Z,12.10
2022-10-16T20:33:37.801Z,12.10
2022-10-16T20:36:06.282Z,12.00
2022-10-16T20:38:34.171Z,12.00
2022-10-16T20:41:04.675Z,12.00
2022-10-16T20:43:32.663Z,12.00
2022-10-16T20:46:01.822Z,12.00
2022-10-16T20:48:31.275Z,12.10
2022-10-16T20:50:59.923Z,12.00
2022-10-16T20:53:28.849Z,12.10
2022-10-16T20:55:56.698Z,12.00
2022-10-16T20:58:24.495Z,12.00
2022-10-16T21:00:52.335Z,12.10
2022-10-16T21:03:20.121Z,12.10
2022-10-16T21:05:49.300Z,12.10
2022-10-16T21:08:17.121Z,12.10
2022-10-16T21:10:44.968Z,12.10
2022-10-16T21:13:12.747Z,12.10
2022-10-16T21:15:40.616Z,12.10
2022-10-16T21:18:08.385Z,12.10
2022-10-16T21:20:36.454Z,12.00
2022-10-16T21:23:05.836Z,12.00
2022-10-16T21:25:33.713Z,12.00
2022-10-16T21:28:01.615Z,11.90
2022-10-16T21:30:29.677Z,11.90
2022-10-16T21:32:57.451Z,12.00
2022-10-16T21:35:25.523Z,11.90
2022-10-16T21:37:53.340Z,11.90
2022-10-16T21:40:22.534Z,11.90
2022-10-16T21:42:50.323Z,11.90
2022-10-16T21:45:18.170Z,11.90
2022-10-16T21:47:47.714Z,11.90
2022-10-16T21:50:15.733Z,11.90
2022-10-16T21:52:43.569Z,11.90
2022-10-16T21:55:11.516Z,11.90
2022-10-16T21:57:40.664Z,11.90
2022-10-16T22:00:10.799Z,11.80
2022-10-16T22:02:38.619Z,11.90
2022-10-16T22:05:06.868Z,11.80
2022-10-16T22:07:34.709Z,11.80
2022-10-16T22:10:02.734Z,11.90
2022-10-16T22:12:30.709Z,11.90
2022-10-16T22:14:59.907Z,11.90
2022-10-16T22:17:27.881Z,11.90
2022-10-16T22:19:55.874Z,11.90
2022-10-16T22:22:23.721Z,11.90
2022-10-16T22:24:51.605Z,11.80
2022-10-16T22:27:19.471Z,11.80
2022-10-16T22:29:47.499Z,11.80
2022-10-16T22:32:16.722Z,11.90
2022-10-16T22:34:44.587Z,11.80
2022-10-16T22:37:12.445Z,11.90
2022-10-16T22:39:40.291Z,11.90
2022-10-16T22:42:08.093Z,11.90
2022-10-16T22:44:36.146Z,11.90
2022-10-16T22:47:04.024Z,11.90
2022-10-16T22:49:33.248Z,12.00
2022-10-16T22:52:01.555Z,12.00
2022-10-16T22:54:29.497Z,12.00
2022-10-16T22:56:57.283Z,12.00
2022-10-16T22:59:25.196Z,12.00
2022-10-16T23:01:53.015Z,12.00
2022-10-16T23:04:20.876Z,12.00
2022-10-16T23:06:50.042Z,12.00
2022-10-16T23:09:18.012Z,12.00
2022-10-16T23:11:45.818Z,12.00
2022-10-16T23:14:13.690Z,12.00
2022-10-16T23:16:41.487Z,12.00
2022-10-16T23:21:42.207Z,12.00
2022-10-16T23:24:11.436Z,12.00
2022-10-16T23:26:39.265Z,12.00
2022-10-16T23:29:07.230Z,12.10
2022-10-16T23:31:35.121Z,12.20
2022-10-16T23:34:03.004Z,12.20
2022-10-16T23:36:30.925Z,12.20
2022-10-16T23:38:58.771Z,12.30
2022-10-16T23:41:28.158Z,12.30
2022-10-16T23:43:55.991Z,12.30
2022-10-16T23:48:56.718Z,12.40
2022-10-16T23:51:24.540Z,12.40
2022-10-16T23:53:53.720Z,12.40
2022-10-16T23:56:21.805Z,12.40
2022-10-16T23:58:50.975Z,12.50
